Terminal Aerodrome Forecast
Issued by NWS Sterling, VA

Current Version | Previous Version | Graphics & Text | Print | Product List | Glossary On
Versions: 1 2 3 4 5 6 7 8 9 10 11 12 13 14 15 16 17 18 19 20 21 22 23 24 25 26 27
000
FTUS41 KLWX 251131
TAFDCA
TAF
KDCA 251131Z 2512/2612 22004KT P6SM BKN150
     FM251500 23005KT P6SM SCT060
     FM252000 24007KT P6SM VCTS BKN060CB
     FM260100 25007KT P6SM BKN060
     FM261100 31005KT P6SM BKN060=

USA.gov is the U.S. government's official web portal to all federal, state and local government web resources and services.